createdAt,value
2019-05-06T00:00:55.340Z,96863.34
2019-05-06T00:03:13.938Z,96859.80
2019-05-06T00:05:40.574Z,96862.14
2019-05-06T00:15:57.585Z,96864.16
2019-05-06T00:18:24.639Z,96856.67
2019-05-06T00:20:51.628Z,96865.06
2019-05-06T00:23:18.289Z,96852.42
2019-05-06T00:25:53.524Z,96855.45
2019-05-06T00:28:20.154Z,96853.45
2019-05-06T00:30:47.028Z,96855.37
2019-05-06T00:33:13.675Z,96856.67
2019-05-06T00:35:40.497Z,96860.06
2019-05-06T00:38:08.046Z,96866.34
2019-05-06T00:40:34.661Z,96856.23
2019-05-06T00:43:04.872Z,96858.45
2019-05-06T00:45:34.381Z,96866.73
2019-05-06T00:48:04.626Z,96867.36
2019-05-06T00:50:34.817Z,96869.94
2019-05-06T00:53:02.053Z,96870.77
2019-05-06T00:55:30.974Z,96877.38
2019-05-06T00:57:58.791Z,96888.84
2019-05-06T01:00:27.149Z,96887.20
2019-05-06T01:02:56.557Z,96895.02
2019-05-06T01:05:24.455Z,96882.08
2019-05-06T01:07:55.555Z,96882.98
2019-05-06T01:10:24.193Z,96882.19
2019-05-06T01:12:50.847Z,96886.34
2019-05-06T01:15:20.538Z,96893.61
2019-05-06T01:17:49.195Z,96885.72
2019-05-06T01:20:16.236Z,96884.57
2019-05-06T01:22:46.577Z,96890.91
2019-05-06T01:25:14.215Z,96877.91
2019-05-06T01:27:44.670Z,96873.01
2019-05-06T01:30:13.728Z,96875.46
2019-05-06T01:32:43.631Z,96862.73
2019-05-06T01:35:09.959Z,96876.85
2019-05-06T01:37:36.596Z,96872.81
2019-05-06T01:40:04.423Z,96872.61
2019-05-06T01:42:34.480Z,96877.57
2019-05-06T01:45:00.698Z,96884.27
2019-05-06T01:47:30.715Z,96881.95
2019-05-06T01:50:01.060Z,96875.26
2019-05-06T01:52:29.475Z,96880.62
2019-05-06T01:54:56.035Z,96875.28
2019-05-06T01:57:24.415Z,96880.58
2019-05-06T01:59:54.025Z,96878.80
2019-05-06T02:02:24.018Z,96886.64
2019-05-06T02:04:50.878Z,96886.05
2019-05-06T02:07:23.929Z,96888.02
2019-05-06T02:09:54.466Z,96892.52
2019-05-06T02:12:20.749Z,96899.19
2019-05-06T02:14:47.678Z,96909.49
2019-05-06T02:17:14.600Z,96908.97
2019-05-06T02:19:43.664Z,96906.93
2019-05-06T02:22:10.058Z,96900.89
2019-05-06T02:24:38.952Z,96901.36
2019-05-06T02:27:06.151Z,96906.29
2019-05-06T02:29:34.860Z,96904.98
2019-05-06T02:32:19.903Z,96900.08
2019-05-06T02:34:30.477Z,96897.34
2019-05-06T02:37:25.155Z,96901.16
2019-05-06T02:39:33.923Z,96892.52
2019-05-06T02:42:04.394Z,96900.77
2019-05-06T02:44:33.760Z,96888.59
2019-05-06T02:47:05.397Z,96891.87
2019-05-06T02:49:35.441Z,96886.42
2019-05-06T02:52:03.308Z,96873.20
2019-05-06T02:54:34.535Z,96864.56
2019-05-06T02:57:04.269Z,96867.90
2019-05-06T02:59:33.146Z,96867.86
2019-05-06T03:02:03.366Z,96868.83
2019-05-06T03:04:32.941Z,96870.52
2019-05-06T03:06:59.476Z,96867.69
2019-05-06T03:09:27.161Z,96870.14
2019-05-06T03:11:54.234Z,96866.64
2019-05-06T03:14:23.381Z,96873.31
2019-05-06T03:16:53.732Z,96876.42
2019-05-06T03:19:24.059Z,96870.23
2019-05-06T03:21:54.716Z,96882.84
2019-05-06T03:24:23.828Z,96881.48
2019-05-06T03:26:56.741Z,96884.23
2019-05-06T03:29:25.356Z,96891.50
2019-05-06T03:31:56.639Z,96891.97
2019-05-06T03:34:42.990Z,96895.05
2019-05-06T03:36:56.260Z,96900.51
2019-05-06T03:39:19.898Z,96899.23
2019-05-06T03:41:48.548Z,96908.45
2019-05-06T03:44:19.650Z,96906.02
2019-05-06T03:46:46.616Z,96901.77
2019-05-06T03:49:13.555Z,96896.40
2019-05-06T03:51:43.146Z,96897.48
2019-05-06T03:54:12.979Z,96903.78
2019-05-06T03:56:43.314Z,96900.59
2019-05-06T03:59:13.339Z,96893.28
2019-05-06T04:01:45.030Z,96898.41
2019-05-06T04:04:15.120Z,96895.41
2019-05-06T04:06:44.565Z,96891.85
2019-05-06T04:09:13.256Z,96897.34
2019-05-06T04:11:43.347Z,96898.41
2019-05-06T04:14:13.994Z,96899.13
2019-05-06T04:16:43.758Z,96893.48
2019-05-06T04:19:09.083Z,96900.47
2019-05-06T04:21:39.290Z,96910.47
2019-05-06T04:24:07.832Z,96900.89
2019-05-06T04:26:37.583Z,96905.16
2019-05-06T04:29:05.713Z,96899.42
2019-05-06T04:31:35.981Z,96902.50
2019-05-06T04:34:12.801Z,96902.27
2019-05-06T04:36:33.859Z,96904.02
2019-05-06T04:39:05.424Z,96899.43
2019-05-06T04:41:34.084Z,96902.44
2019-05-06T04:44:02.905Z,96908.20
2019-05-06T04:46:29.096Z,96908.73
2019-05-06T04:48:55.949Z,96915.19
2019-05-06T04:51:24.780Z,96916.75
2019-05-06T04:53:53.675Z,96914.06
2019-05-06T04:56:19.703Z,96910.12
2019-05-06T04:58:46.637Z,96920.64
2019-05-06T05:01:15.732Z,96910.03
2019-05-06T05:03:42.770Z,96918.73
2019-05-06T05:06:09.707Z,96918.55
2019-05-06T05:08:36.823Z,96925.38
2019-05-06T05:11:03.746Z,96922.79
2019-05-06T05:13:32.764Z,96920.67
2019-05-06T05:15:59.038Z,96925.72
2019-05-06T05:18:25.696Z,96918.92
2019-05-06T05:20:52.848Z,96924.63
2019-05-06T05:23:19.597Z,96930.21
2019-05-06T05:25:46.185Z,96929.78
2019-05-06T05:28:13.695Z,96931.50
2019-05-06T05:30:42.785Z,96931.31
2019-05-06T05:33:08.855Z,96928.06
2019-05-06T05:35:36.034Z,96941.09
2019-05-06T05:38:03.039Z,96933.83
2019-05-06T05:40:32.066Z,96935.77
2019-05-06T05:42:58.433Z,96940.80
2019-05-06T05:45:25.113Z,96939.09
2019-05-06T05:47:52.271Z,96928.80
2019-05-06T05:50:19.550Z,96939.03
2019-05-06T05:52:46.147Z,96937.73
2019-05-06T05:55:13.365Z,96931.76
2019-05-06T05:57:39.956Z,96925.66
2019-05-06T06:00:06.813Z,96939.31
2019-05-06T06:02:33.581Z,96928.51
2019-05-06T06:05:02.519Z,96937.31
2019-05-06T06:07:28.893Z,96933.07
2019-05-06T06:09:56.497Z,96924.39
2019-05-06T06:12:23.267Z,96934.09
2019-05-06T06:14:53.416Z,96929.34
2019-05-06T06:17:18.410Z,96930.94
2019-05-06T06:19:45.078Z,96935.61
2019-05-06T06:22:11.861Z,96940.67
2019-05-06T06:24:38.545Z,96939.76
2019-05-06T06:27:06.230Z,96940.84
2019-05-06T06:29:34.895Z,96947.57
2019-05-06T06:32:04.557Z,96950.69
2019-05-06T06:34:34.810Z,96943.00
2019-05-06T06:37:02.575Z,96950.59
2019-05-06T06:39:29.373Z,96953.23
2019-05-06T06:41:56.002Z,96953.13
2019-05-06T06:44:22.835Z,96956.38
2019-05-06T06:46:49.710Z,96956.64
2019-05-06T06:49:17.125Z,96948.66
2019-05-06T06:51:43.779Z,96945.23
2019-05-06T06:54:12.317Z,96955.05
2019-05-06T06:56:39.862Z,96948.98
2019-05-06T06:59:07.166Z,96941.69
2019-05-06T07:01:34.082Z,96951.28
2019-05-06T07:04:06.785Z,96941.79
2019-05-06T07:06:28.987Z,96943.10
2019-05-06T07:08:55.589Z,96942.59
2019-05-06T07:11:22.615Z,96954.77
2019-05-06T07:13:49.538Z,96950.23
2019-05-06T07:16:16.621Z,96948.59
2019-05-06T07:18:43.253Z,96951.38
2019-05-06T07:21:13.869Z,96945.77
2019-05-06T07:23:41.949Z,96952.80
2019-05-06T07:26:08.368Z,96948.91
2019-05-06T07:28:35.089Z,96948.88
2019-05-06T07:31:17.468Z,96949.73
2019-05-06T07:33:33.213Z,96962.79
2019-05-06T07:35:59.394Z,96943.05
2019-05-06T07:38:26.434Z,96937.47
2019-05-06T07:40:53.872Z,96941.11
2019-05-06T07:43:22.029Z,96937.66
2019-05-06T07:45:48.919Z,96941.59
2019-05-06T07:48:15.660Z,96941.52
2019-05-06T07:50:42.617Z,96937.25
2019-05-06T07:53:09.514Z,96942.16
2019-05-06T07:55:36.450Z,96939.57
2019-05-06T07:58:03.217Z,96929.70
2019-05-06T08:00:32.555Z,96950.28
2019-05-06T08:02:58.603Z,96946.97
2019-05-06T08:05:25.304Z,96948.88
2019-05-06T08:07:55.065Z,96951.32
2019-05-06T08:10:22.257Z,96938.84
2019-05-06T08:12:49.107Z,96960.14
2019-05-06T08:15:16.030Z,96963.77
2019-05-06T08:17:42.700Z,96953.66
2019-05-06T08:20:09.593Z,96960.84
2019-05-06T08:22:36.192Z,96966.00
2019-05-06T08:25:03.576Z,96963.84
2019-05-06T08:27:32.592Z,96950.83
2019-05-06T08:29:59.158Z,96961.30
2019-05-06T08:32:25.786Z,96962.10
2019-05-06T08:34:52.648Z,96960.08
2019-05-06T08:37:19.287Z,96975.55
2019-05-06T08:39:46.567Z,96968.37
2019-05-06T08:42:13.584Z,96967.17
2019-05-06T08:44:42.567Z,96972.63
2019-05-06T08:47:08.792Z,96980.41
2019-05-06T08:49:35.585Z,96986.42
2019-05-06T08:52:02.593Z,96978.95
2019-05-06T08:54:29.235Z,96991.17
2019-05-06T08:56:56.207Z,96989.16
2019-05-06T08:59:24.029Z,96989.83
2019-05-06T09:01:53.377Z,96983.36
2019-05-06T09:04:19.632Z,96984.31
2019-05-06T09:06:46.232Z,96988.97
2019-05-06T09:09:13.431Z,96992.13
2019-05-06T09:11:40.074Z,96996.63
2019-05-06T09:14:09.643Z,96995.39
2019-05-06T09:16:35.398Z,97013.13
2019-05-06T09:19:04.425Z,97002.75
2019-05-06T09:21:30.407Z,97009.84
2019-05-06T09:23:56.998Z,97008.00
2019-05-06T09:26:23.842Z,97012.98
2019-05-06T09:28:52.964Z,97002.30
2019-05-06T09:31:19.245Z,97008.63
2019-05-06T09:33:45.855Z,97024.03
2019-05-06T09:36:12.871Z,97027.84
2019-05-06T09:38:39.736Z,97015.77
2019-05-06T09:41:06.617Z,97027.31
2019-05-06T09:43:33.511Z,97029.72
2019-05-06T09:46:02.299Z,97032.61
2019-05-06T09:48:28.879Z,97048.56
2019-05-06T09:50:55.960Z,97034.41
2019-05-06T09:53:23.172Z,97024.95
2019-05-06T09:55:52.200Z,97042.67
2019-05-06T09:58:19.465Z,97054.69
2019-05-06T10:00:46.076Z,97053.64
2019-05-06T10:03:13.098Z,97047.58
2019-05-06T10:05:39.767Z,97056.77
2019-05-06T10:08:07.270Z,97050.45
2019-05-06T10:10:33.871Z,97058.77
2019-05-06T10:13:02.562Z,97057.65
2019-05-06T10:15:29.065Z,97062.97
2019-05-06T10:17:55.801Z,97067.77
2019-05-06T10:20:22.455Z,97071.67
2019-05-06T10:22:49.119Z,97070.50
2019-05-06T10:25:16.029Z,97076.13
2019-05-06T10:27:42.906Z,97069.88
2019-05-06T10:30:12.366Z,97071.84
2019-05-06T10:32:38.345Z,97060.73
2019-05-06T10:35:07.116Z,97079.78
2019-05-06T10:37:34.713Z,97078.50
2019-05-06T10:40:03.190Z,97077.94
2019-05-06T10:42:42.985Z,97077.42
2019-05-06T10:45:08.569Z,97078.27
2019-05-06T10:47:37.474Z,97073.66
2019-05-06T10:50:04.082Z,97083.42
2019-05-06T10:52:35.050Z,97081.45
2019-05-06T10:55:03.392Z,97080.63
2019-05-06T10:57:32.638Z,97084.32
2019-05-06T10:59:58.629Z,97078.89
2019-05-06T11:02:27.566Z,97082.56
2019-05-06T11:04:54.266Z,97082.25
2019-05-06T11:07:29.387Z,97088.16
2019-05-06T11:09:53.241Z,97077.65
2019-05-06T11:12:22.156Z,97082.05
2019-05-06T11:14:55.336Z,97083.02
2019-05-06T11:17:23.291Z,97072.13
2019-05-06T11:19:53.338Z,97092.13
2019-05-06T11:22:24.723Z,97099.13
2019-05-06T11:24:54.688Z,97095.65
2019-05-06T11:27:31.100Z,97104.73
2019-05-06T11:29:52.908Z,97107.20
2019-05-06T11:32:21.878Z,97111.61
2019-05-06T11:34:49.283Z,97115.53
2019-05-06T11:37:16.427Z,97101.67
2019-05-06T11:39:43.293Z,97116.54
2019-05-06T11:42:25.000Z,97106.99
2019-05-06T11:44:43.883Z,97114.78
2019-05-06T11:47:09.288Z,97121.11
2019-05-06T11:49:36.436Z,97116.27
2019-05-06T11:52:03.334Z,97127.46
2019-05-06T11:54:29.932Z,97123.70
2019-05-06T11:56:58.620Z,97123.44
2019-05-06T11:59:25.636Z,97132.17
2019-05-06T12:01:53.402Z,97129.63
2019-05-06T12:04:23.335Z,97130.01
2019-05-06T12:06:52.610Z,97131.11
2019-05-06T12:09:19.019Z,97123.75
2019-05-06T12:11:45.978Z,97129.20
2019-05-06T12:14:13.599Z,97126.61
2019-05-06T12:16:40.923Z,97127.32
2019-05-06T12:19:07.535Z,97130.33
2019-05-06T12:21:34.147Z,97126.61
2019-05-06T12:24:02.882Z,97134.64
2019-05-06T12:26:29.309Z,97126.41
2019-05-06T12:28:57.358Z,97117.62
2019-05-06T12:31:23.932Z,97127.56
2019-05-06T12:33:53.524Z,97123.19
2019-05-06T12:36:22.772Z,97119.52
2019-05-06T12:38:52.444Z,97120.45
2019-05-06T12:41:18.244Z,97124.00
2019-05-06T12:43:45.360Z,97122.48
2019-05-06T12:46:13.267Z,97125.31
2019-05-06T12:48:43.820Z,97127.02
2019-05-06T12:51:09.686Z,97127.75
2019-05-06T12:53:36.853Z,97126.83
2019-05-06T12:56:03.600Z,97124.42
2019-05-06T12:58:30.362Z,97123.03
2019-05-06T13:00:57.269Z,97121.41
2019-05-06T13:03:23.908Z,97122.27
2019-05-06T13:05:52.137Z,97132.33
2019-05-06T13:08:21.058Z,97127.14
2019-05-06T13:10:47.931Z,97117.46
2019-05-06T13:13:16.548Z,97144.98
2019-05-06T13:15:46.507Z,97135.73
2019-05-06T13:18:13.707Z,97139.94
2019-05-06T13:20:49.125Z,97129.80
2019-05-06T13:23:17.278Z,97135.14
2019-05-06T13:25:42.271Z,97127.92
2019-05-06T13:28:07.586Z,97133.06
2019-05-06T13:30:34.179Z,97142.75
2019-05-06T13:33:03.823Z,97140.63
2019-05-06T13:35:29.483Z,97135.42
2019-05-06T13:37:56.441Z,97140.11
2019-05-06T13:40:26.869Z,97142.12
2019-05-06T13:42:52.829Z,97141.70
2019-05-06T13:45:19.483Z,97142.84
2019-05-06T13:47:46.401Z,97147.48
2019-05-06T13:50:13.075Z,97150.09
2019-05-06T13:52:39.656Z,97143.95
2019-05-06T13:55:06.376Z,97148.58
2019-05-06T13:57:33.534Z,97159.26
2019-05-06T14:00:02.896Z,97151.51
2019-05-06T14:02:28.916Z,97153.80
2019-05-06T14:04:55.802Z,97148.34
2019-05-06T14:07:24.383Z,97138.53
2019-05-06T14:09:53.004Z,97148.98
2019-05-06T14:12:21.658Z,97149.66
2019-05-06T14:14:48.098Z,97138.55
2019-05-06T14:17:14.686Z,97157.26
2019-05-06T14:19:43.060Z,97147.42
2019-05-06T14:22:12.333Z,97157.93
2019-05-06T14:24:38.631Z,97150.93
2019-05-06T14:27:05.540Z,97157.22
2019-05-06T14:29:32.948Z,97154.00
2019-05-06T14:31:59.986Z,97154.80
2019-05-06T14:34:27.267Z,97165.08
2019-05-06T14:36:53.939Z,97170.42
2019-05-06T14:39:23.648Z,97152.41
2019-05-06T14:41:48.918Z,97160.99
2019-05-06T14:44:15.695Z,97162.67
2019-05-06T14:46:42.653Z,97163.99
2019-05-06T14:49:09.683Z,97158.34
2019-05-06T14:51:36.268Z,97157.98
2019-05-06T14:54:03.124Z,97166.92
2019-05-06T14:56:31.910Z,97172.08
2019-05-06T14:58:58.082Z,97162.73
2019-05-06T15:01:24.958Z,97170.76
2019-05-06T15:03:52.391Z,97164.53
2019-05-06T15:06:19.084Z,97172.56
2019-05-06T15:08:45.720Z,97175.09
2019-05-06T15:11:12.698Z,97176.09
2019-05-06T15:13:39.347Z,97171.41
2019-05-06T15:16:06.251Z,97168.23
2019-05-06T15:18:32.899Z,97162.42
2019-05-06T15:21:27.496Z,97177.58
2019-05-06T15:23:28.064Z,97177.39
2019-05-06T15:25:54.738Z,97177.98
2019-05-06T15:28:22.607Z,97178.12
2019-05-06T15:30:49.336Z,97181.53
2019-05-06T15:33:16.451Z,97173.89
2019-05-06T15:35:43.273Z,97181.19
2019-05-06T15:38:10.119Z,97173.69
2019-05-06T15:40:36.928Z,97179.58
2019-05-06T15:43:03.805Z,97181.27
2019-05-06T15:45:32.376Z,97186.20
2019-05-06T15:47:59.265Z,97188.25
2019-05-06T15:50:25.891Z,97189.83
2019-05-06T15:52:53.895Z,97188.86
2019-05-06T15:55:22.593Z,97190.05
2019-05-06T15:57:49.524Z,97184.24
2019-05-06T16:00:16.123Z,97185.66
2019-05-06T16:02:42.893Z,97186.31
2019-05-06T16:05:13.858Z,97186.88
2019-05-06T16:07:38.527Z,97189.94
2019-05-06T16:10:05.269Z,97194.30
2019-05-06T16:12:31.857Z,97189.94
2019-05-06T16:14:58.722Z,97186.33
2019-05-06T16:17:25.378Z,97195.07
2019-05-06T16:19:52.039Z,97196.80
2019-05-06T16:22:18.627Z,97190.81
2019-05-06T16:24:45.703Z,97197.72
2019-05-06T16:27:12.512Z,97197.63
2019-05-06T16:29:39.172Z,97195.95
2019-05-06T16:32:06.079Z,97204.52
2019-05-06T16:34:32.847Z,97196.48
2019-05-06T16:37:01.939Z,97198.14
2019-05-06T16:39:29.020Z,97214.41
2019-05-06T16:41:55.627Z,97211.27
2019-05-06T16:44:22.228Z,97213.14
2019-05-06T16:46:48.854Z,97206.86
2019-05-06T16:49:15.442Z,97219.70
2019-05-06T16:51:43.965Z,97221.28
2019-05-06T16:54:12.353Z,97224.98
2019-05-06T16:56:39.195Z,97219.09
2019-05-06T16:59:06.186Z,97228.03
2019-05-06T17:01:34.515Z,97229.61
2019-05-06T17:04:03.112Z,97230.97
2019-05-06T17:06:32.474Z,97235.88
2019-05-06T17:08:58.333Z,97227.31
2019-05-06T17:11:30.352Z,97238.84
2019-05-06T17:13:53.411Z,97230.11
2019-05-06T17:16:22.083Z,97228.20
2019-05-06T17:18:48.577Z,97229.20
2019-05-06T17:21:15.429Z,97229.73
2019-05-06T17:23:42.437Z,97238.27
2019-05-06T17:26:09.016Z,97242.50
2019-05-06T17:28:35.883Z,97249.63
2019-05-06T17:31:03.669Z,97245.98
2019-05-06T17:33:31.493Z,97257.36
2019-05-06T17:35:59.444Z,97252.81
2019-05-06T17:38:26.083Z,97255.95
2019-05-06T17:40:52.700Z,97252.51
2019-05-06T17:43:19.452Z,97262.58
2019-05-06T17:45:58.341Z,97260.42
2019-05-06T17:48:14.892Z,97259.81
2019-05-06T17:50:42.023Z,97260.95
2019-05-06T17:53:09.162Z,97269.94
2019-05-06T17:55:36.738Z,97271.16
2019-05-06T17:58:03.732Z,97273.75
2019-05-06T18:00:32.346Z,97277.27
2019-05-06T18:02:58.751Z,97278.83
2019-05-06T18:05:25.488Z,97280.79
2019-05-06T18:07:52.134Z,97291.88
2019-05-06T18:10:19.352Z,97291.78
2019-05-06T18:12:45.947Z,97299.69
2019-05-06T18:15:13.426Z,97294.83
2019-05-06T18:17:40.325Z,97301.95
2019-05-06T18:20:07.082Z,97316.48
2019-05-06T18:22:33.825Z,97312.81
2019-05-06T18:25:02.237Z,97319.95
2019-05-06T18:27:29.070Z,97315.76
2019-05-06T18:30:04.354Z,97327.52
2019-05-06T18:32:24.018Z,97325.37
2019-05-06T18:34:52.700Z,97327.95
2019-05-06T18:37:19.241Z,97338.52
2019-05-06T18:39:46.135Z,97346.01
2019-05-06T18:42:18.972Z,97348.37
2019-05-06T18:47:20.590Z,97353.61
2019-05-06T18:49:47.185Z,97351.48
2019-05-06T18:52:14.913Z,97366.38
2019-05-06T18:54:42.935Z,97368.09
2019-05-06T18:57:09.615Z,97375.09
2019-05-06T18:59:37.151Z,97380.48
2019-05-06T19:02:03.878Z,97394.11
2019-05-06T19:04:30.476Z,97391.28
2019-05-06T19:07:09.350Z,97394.63
2019-05-06T19:09:25.828Z,97396.53
2019-05-06T19:11:54.481Z,97399.87
2019-05-06T19:14:21.944Z,97390.88
2019-05-06T19:16:52.159Z,97395.23
2019-05-06T19:19:17.211Z,97390.88
2019-05-06T19:21:45.299Z,97401.20
2019-05-06T19:24:13.468Z,97400.56
2019-05-06T19:26:40.059Z,97405.81
2019-05-06T19:29:06.704Z,97406.51
2019-05-06T19:34:07.674Z,97411.00
2019-05-06T19:36:34.956Z,97420.41
2019-05-06T19:39:02.218Z,97416.08
2019-05-06T19:41:30.259Z,97415.84
2019-05-06T19:43:56.906Z,97421.11
2019-05-06T19:46:23.806Z,97421.67
2019-05-06T19:48:52.417Z,97420.86
2019-05-06T19:51:19.408Z,97424.03
2019-05-06T19:53:46.113Z,97434.28
2019-05-06T19:56:12.849Z,97438.72
2019-05-06T19:58:40.231Z,97435.69
2019-05-06T20:01:06.992Z,97437.39
2019-05-06T20:03:33.858Z,97432.84
2019-05-06T20:06:02.299Z,97433.36
2019-05-06T20:08:29.673Z,97435.36
2019-05-06T20:10:56.365Z,97438.88
2019-05-06T20:13:23.277Z,97435.99
2019-05-06T20:15:52.079Z,97439.59
2019-05-06T20:18:18.505Z,97437.48
2019-05-06T20:20:45.151Z,97435.48
2019-05-06T20:23:12.676Z,97441.89
2019-05-06T20:25:39.660Z,97435.56
2019-05-06T20:28:06.244Z,97442.82
2019-05-06T20:30:33.869Z,97448.83
2019-05-06T20:33:00.520Z,97447.69
2019-05-06T20:35:27.385Z,97448.09
2019-05-06T20:37:54.287Z,97441.51
2019-05-06T20:40:22.866Z,97443.31
2019-05-06T20:42:49.790Z,97454.23
2019-05-06T20:45:16.474Z,97454.78
2019-05-06T20:47:43.124Z,97451.03
2019-05-06T20:50:09.728Z,97449.95
2019-05-06T20:52:37.166Z,97447.77
2019-05-06T20:55:12.612Z,97457.05
2019-05-06T20:57:32.158Z,97463.46
2019-05-06T20:59:58.992Z,97464.19
2019-05-06T21:02:25.982Z,97470.70
2019-05-06T21:04:52.700Z,97472.32
2019-05-06T21:07:19.347Z,97475.14
2019-05-06T21:09:45.950Z,97473.55
2019-05-06T21:12:12.589Z,97478.94
2019-05-06T21:14:41.938Z,97488.19
2019-05-06T21:17:09.151Z,97478.98
2019-05-06T21:19:35.771Z,97480.84
2019-05-06T21:22:03.002Z,97484.34
2019-05-06T21:24:29.577Z,97491.21
2019-05-06T21:26:58.217Z,97488.95
2019-05-06T21:29:24.886Z,97491.48
2019-05-06T21:31:53.080Z,97489.37
2019-05-06T21:34:22.207Z,97489.17
2019-05-06T21:36:50.642Z,97491.41
2019-05-06T21:39:16.991Z,97485.22
2019-05-06T21:41:43.584Z,97494.70
2019-05-06T21:44:13.213Z,97486.81
2019-05-06T21:46:40.061Z,97489.78
2019-05-06T21:49:06.761Z,97488.84
2019-05-06T21:51:33.566Z,97493.37
2019-05-06T21:54:02.666Z,97499.04
2019-05-06T21:56:28.617Z,97498.06
2019-05-06T21:58:55.459Z,97493.73
2019-05-06T22:01:23.335Z,97495.48
2019-05-06T22:03:50.067Z,97500.58
2019-05-06T22:06:17.160Z,97497.74
2019-05-06T22:08:44.021Z,97500.73
2019-05-06T22:11:11.072Z,97494.48
2019-05-06T22:13:38.185Z,97492.30
2019-05-06T22:16:05.088Z,97499.16
2019-05-06T22:18:31.708Z,97502.25
2019-05-06T22:20:59.097Z,97497.16
2019-05-06T22:23:25.992Z,97497.83
2019-05-06T22:25:52.599Z,97497.42
2019-05-06T22:28:19.187Z,97502.00
2019-05-06T22:30:45.789Z,97497.14
2019-05-06T22:33:13.483Z,97498.97
2019-05-06T22:35:40.454Z,97492.66
2019-05-06T22:38:07.762Z,97496.27
2019-05-06T22:40:34.350Z,97501.02
2019-05-06T22:43:03.072Z,97495.59
2019-05-06T22:45:29.437Z,97487.38
2019-05-06T22:47:56.080Z,97492.83
2019-05-06T22:50:23.192Z,97489.92
2019-05-06T22:52:49.777Z,97492.95
2019-05-06T22:55:16.939Z,97501.13
2019-05-06T22:57:43.539Z,97496.36
2019-05-06T23:00:12.569Z,97497.58
2019-05-06T23:02:38.973Z,97488.70
2019-05-06T23:05:06.279Z,97494.08
2019-05-06T23:07:34.080Z,97492.34
2019-05-06T23:10:00.810Z,97499.49
2019-05-06T23:12:27.682Z,97495.48
2019-05-06T23:14:54.261Z,97493.36
2019-05-06T23:17:21.094Z,97498.84
2019-05-06T23:19:47.703Z,97497.68
2019-05-06T23:22:14.297Z,97501.36
2019-05-06T23:24:41.076Z,97501.11
2019-05-06T23:27:07.687Z,97501.55
2019-05-06T23:29:34.262Z,97513.07
2019-05-06T23:32:02.995Z,97509.40
2019-05-06T23:34:30.023Z,97510.02
2019-05-06T23:36:56.650Z,97503.33
2019-05-06T23:39:23.658Z,97505.55
2019-05-06T23:41:50.301Z,97503.14
2019-05-06T23:44:17.118Z,97506.11
2019-05-06T23:46:44.001Z,97507.46
2019-05-06T23:49:12.901Z,97503.44
2019-05-06T23:51:39.135Z,97508.49
2019-05-06T23:54:05.873Z,97506.20
2019-05-06T23:56:32.628Z,97514.87
2019-05-06T23:59:00.941Z,97522.03
